Latest Coastal Weather Observations for Darwin Airport

IDD60701

Issued at 5:31 am CST Saturday 1 October 2016 (issued every 10 minutes, with the page automatically refreshed every 10 minutes)

About coastal observations | Map of coastal stations | Coastal observations for NT | Marine services | Other Formats
Station Details ID: 014015 Name: DARWIN AIRPORT Lat: -12.42 Lon: 130.89 Height: 30.4 m
Data from the previous 72 hours. | See also: Recent months at Darwin Airport
Date/Time
CST
Temp
°C
Wind Pressure Rain since
9am
mm
Weather Cloud Vis
km
Sea
Height
m
Swell
Dir  Spd
kts
Gust
kts
hPa Trend Height
m
Period
s
Dir
01/05:00am 25.9 WNW 5 6 1009.0 - 9.8 - - 10 - - - -
01/04:30am 26.1 NW 6 7 1008.6 - 9.8 - - 10 - - - -
01/04:00am 26.5 NW 7 8 1008.4 - 9.8 - - 10 - - - -
01/03:30am 26.0 NW 5 7 1008.5 - 9.8 - - 10 - - - -
01/03:00am 26.3 NW 6 7 1008.5 R 9.8 - - 10 - - - -
01/02:30am 26.4 NW 5 8 1008.8 - 9.8 - - 10 - - - -
01/02:00am 26.8 NNW 5 8 1008.8 - 9.8 - Mostly clear 10 - - - -
01/01:30am 26.8 NW 7 8 1009.0 - 9.8 - Mostly clear 10 - - - -
01/01:00am 26.9 NW 5 6 1009.2 - 9.8 - Mostly clear 10 - - - -
01/12:30am 27.2 N 6 7 1009.4 - 9.8 - Mostly clear 10 - - - -
01/12:00am 27.4 NNW 7 9 1009.3 F 9.8 Fine Mostly clear 30 - - - -
 
Date/Time
CST
Temp
°C
Wind Pressure Rain since
9am
mm
Weather Cloud Vis
km
Sea
Height
m
Swell
Dir  Spd
kts
Gust
kts
hPa Trend Height
m
Period
s
Dir
30/11:30pm 27.2 N 7 9 1009.5 - 9.8 - Mostly clear 10 - - - -
30/11:00pm 26.7 N 5 7 1009.4 - 9.8 - Mostly clear 10 - - - -
30/10:30pm 26.8 N 6 7 1009.1 - 9.8 - - 10 - - - -
30/10:00pm 26.9 NNW 6 7 1008.9 - 9.8 - Mostly clear 10 - - - -
30/09:30pm 27.6 WNW 4 5 1009.0 - 9.8 - Mostly clear 10 - - - -
30/09:00pm 27.8 NW 4 6 1008.8 R 9.8 Fine Partly cloudy 30 - - - -
30/08:30pm 27.9 WNW 5 7 1008.6 - 9.8 - Mostly clear 10 - - - -
30/08:00pm 28.1 NW 5 7 1008.4 - 9.8 - Mostly clear 10 - - - -
30/07:30pm 28.3 NW 7 9 1007.9 - 9.8 - Mostly clear 10 - - - -
30/07:00pm 28.4 NW 9 11 1007.3 - 9.8 - Mostly clear 10 - - - -
30/06:30pm 28.5 NNW 7 10 1007.1 - 9.8 - Mostly clear 10 - - - -
30/06:00pm 28.3 NNW 8 9 1006.9 F 9.8 Fine Partly cloudy 30 - - - -
30/05:30pm 27.9 NW 6 9 1006.8 - 9.8 - Mostly clear 10 - - - -
30/05:00pm 26.8 NNW 7 9 1006.5 - 9.8 - Mostly clear 10 - - - -
30/04:30pm 25.1 N 6 9 1006.6 - 9.8 - Mostly clear 10 - - - -
30/04:12pm 24.1 ESE 8 10 1007.4 - 9.4 Rain Mostly clear 10 - - - -
30/04:00pm 24.1 E 9 14 1008.0 - 6.8 Showers Mostly clear 7 - - - -
30/03:42pm 23.6 ENE 14 21 1008.0 - 4.6 Showers Mostly clear 7 - - - -
30/03:30pm 24.9 NE 17 21 1008.0 - 4.0 - Mostly clear 10 - - - -
30/03:00pm 29.8 NW 12 17 1008.1 R 4.0 Distant precip. Mostly cloudy 30 - - - -
30/02:30pm 32.5 NW 13 17 1007.5 - 4.0 - Mostly clear 10 - - - -
30/02:00pm 31.4 NW 12 16 1007.8 - 4.0 - Mostly clear 10 - - - -
30/01:30pm 31.7 NW 11 15 1008.0 - 4.0 - Mostly clear 10 - - - -
30/01:00pm 32.6 NW 10 13 1008.5 - 4.0 - Mostly clear 10 - - - -
30/12:30pm 32.0 NW 9 14 1009.3 - 4.0 - Mostly clear 10 - - - -
30/12:00pm 31.1 NW 8 12 1009.8 R 4.0 Distant precip. Partly cloudy 30 - - - -
30/11:30am 31.0 WNW 8 12 1010.2 - 4.0 - Partly cloudy 10 - - - -
30/11:00am 31.6 W 7 9 1010.5 - 4.0 - Mostly clear 10 - - - -
30/10:30am 30.3 NNW 4 6 1010.7 - 3.8 - Mostly clear 10 - - - -
30/10:00am 29.0 CALM 0 1 1010.8 - 3.8 - Partly cloudy 10 - - - -
30/09:30am 27.7 W 4 5 1010.8 - 3.2 - Partly cloudy 10 - - - -
30/09:18am 27.5 WSW 5 7 1010.7 - 3.2 Showers Mostly clear 10 - - - -
30/09:10am 28.3 SW 5 7 1010.7 - 1.2 Showers Mostly clear 7 - - - -
30/09:00am 29.2 W 4 6 1010.6 R 3.6 Showers Mostly cloudy 15 - - - -
30/08:30am 29.9 WSW 6 7 1010.3 - 3.6 - Partly cloudy 10 - - - -
30/08:00am 28.7 W 2 4 1009.9 - 3.6 - Partly cloudy 10 - - - -
30/07:30am 27.2 CALM 0 0 1009.6 - 3.6 - Partly cloudy 10 - - - -
30/07:00am 26.3 CALM 0 4 1009.2 - 3.6 - Mostly clear 10 - - - -
30/06:30am 26.0 NE 1 4 1008.8 - 3.6 - Mostly clear 10 - - - -
30/06:00am 25.9 ENE 4 5 1008.5 R 3.6 Fine Mostly clear 30 - - - -
30/05:30am 26.4 WNW 1 4 1008.1 - 3.6 - Mostly clear 10 - - - -
30/05:00am 27.0 NW 4 5 1007.9 - 3.6 - - 10 - - - -
30/04:30am 27.2 NNW 6 7 1007.3 - 3.6 - - 10 - - - -
30/04:00am 27.3 NNW 6 7 1007.5 - 3.6 - - 10 - - - -
30/03:30am 27.3 NNW 5 7 1007.5 - 3.6 - - 10 - - - -
30/03:00am 27.6 NW 7 9 1007.6 F 3.6 - - 10 - - - -
30/02:30am 27.6 NNW 7 8 1007.9 - 3.6 - Partly cloudy 10 - - - -
30/02:00am 27.8 NNW 6 9 1008.2 - 3.6 - Mostly clear 10 - - - -
30/01:30am 27.8 NNW 7 10 1008.4 - 3.6 - Mostly clear 10 - - - -
30/01:00am 28.2 NW 8 10 1008.8 - 3.6 - Mostly clear 10 - - - -
30/12:30am 28.4 NW 7 9 1009.2 - 3.6 - Mostly clear 10 - - - -
30/12:00am 28.4 NW 9 10 1009.3 F 3.6 Fine Mostly clear 30 - - - -
 
Date/Time
CST
Temp
°C
Wind Pressure Rain since
9am
mm
Weather Cloud Vis
km
Sea
Height
m
Swell
Dir  Spd
kts
Gust
kts
hPa Trend Height
m
Period
s
Dir
29/11:30pm 28.3 NNW 7 9 1009.3 - 3.6 - Mostly clear 10 - - - -
29/11:00pm 28.6 NW 9 12 1009.5 - 3.6 - Mostly clear 10 - - - -
29/10:30pm 28.6 NW 8 10 1009.3 - 3.6 - Mostly clear 10 - - - -
29/10:00pm 28.7 NW 7 9 1009.3 - 3.6 - - 10 - - - -
29/09:30pm 28.7 NW 7 9 1009.1 - 3.4 - Mostly clear 10 - - - -
29/09:00pm 28.9 NW 7 9 1008.9 R 3.4 Fine Mostly clear 30 - - - -
29/08:30pm 28.9 WNW 9 10 1008.6 - 3.4 - - 10 - - - -
29/08:00pm 28.7 W 10 12 1008.0 - 3.4 - - 10 - - - -
29/07:30pm 28.8 WNW 11 13 1007.5 - 3.4 - - 10 - - - -
29/07:00pm 29.0 WNW 11 15 1007.2 - 3.4 - Mostly clear 10 - - - -
29/06:30pm 28.6 NW 11 15 1006.8 - 3.4 - Mostly clear 10 - - - -
29/06:00pm 28.7 NW 6 10 1006.5 R 3.4 Fine Mostly clear 30 - - - -
29/05:30pm 27.3 N 5 7 1006.8 - 3.4 - Mostly clear 10 - - - -
29/05:27pm 27.1 N 8 10 1006.6 - - - Partly cloudy 10 - - - -
29/05:19pm 27.0 NNW 9 14 1006.8 - 3.4 - Partly cloudy 10 - - - -
29/05:00pm 26.2 SW 13 37 1006.8 - 3.2 Thunderstorm Mostly clear 10 - - - -
29/04:54pm 27.6 SSW 15 37 1007.3 - 0.2 Thunderstorm Mostly clear 10 - - - -
29/04:49pm 28.6 S 12 17 1007.3 - 0.0 Thunderstorm Mostly clear 10 - - - -
29/04:30pm 32.8 W 11 17 1006.6 - 0.0 - Mostly clear 10 - - - -
29/04:00pm 32.3 W 15 19 1006.5 - 0.0 - Mostly clear 10 - - - -
29/03:30pm 32.5 W 13 19 1006.1 - 0.0 - Mostly clear 10 - - - -
29/03:00pm 30.8 W 14 19 1006.3 F 0.0 Distant precip. Mostly cloudy 30 - - - -
29/02:30pm 31.4 WNW 16 19 1006.6 - 0.0 - Mostly clear 10 - - - -
29/02:00pm 32.0 WNW 17 20 1007.0 - 0.0 - Mostly clear 10 - - - -
29/01:30pm 33.6 WNW 15 18 1007.6 - 0.0 - Mostly clear 10 - - - -
29/01:00pm 32.8 WNW 11 16 1008.3 - 0.0 - Mostly clear 10 - - - -
29/12:30pm 32.9 NW 11 16 1008.7 - 0.0 - Mostly clear 10 - - - -
29/12:00pm 33.8 WNW 7 13 1009.2 S 0.0 Fine Mostly cloudy 30 - - - -
29/11:30am 32.5 SW 6 10 1009.8 - 0.0 - Mostly clear 10 - - - -
29/11:00am 31.9 SSW 7 11 1010.3 - 0.0 - Mostly clear 10 - - - -
29/10:30am 31.6 S 5 9 1010.5 - 0.0 - Mostly clear 10 - - - -
29/10:00am 30.6 SW 7 13 1010.5 - 0.0 - Mostly clear 10 - - - -
29/09:30am 30.4 WSW 7 9 1010.5 - 0.0 - Mostly clear 10 - - - -
29/09:00am 29.9 SW 7 10 1010.3 R 0.0 Fine Partly cloudy 30 - - - -
29/08:30am 29.5 WSW 7 9 1010.0 - 0.0 - Mostly clear 10 - - - -
29/08:00am 29.5 W 6 9 1009.7 - 0.0 - Mostly clear 10 - - - -
29/07:30am 27.9 WSW 5 6 1009.4 - 0.0 - - 10 - - - -
29/07:00am 26.0 CALM 0 0 1008.7 - 0.0 - - 10 - - - -
29/06:30am 25.8 N 1 3 1008.5 - 0.0 - - 10 - - - -
29/06:00am 25.7 N 4 5 1008.1 F 0.0 Fine Partly cloudy 30 - - - -
29/05:30am 25.8 NNE 2 4 1007.9 - 0.0 - - 10 - - - -
29/05:00am 25.6 NE 3 5 1007.7 - 0.0 - - 10 - - - -
29/04:30am 25.8 CALM 0 0 1007.7 - 0.0 - - 10 - - - -
29/04:00am 25.9 CALM 0 0 1007.6 - 0.0 - - 10 - - - -
29/03:30am 26.0 WSW 1 5 1007.7 - 0.0 - - 10 - - - -
29/03:00am 26.3 CALM 0 0 1007.8 F 0.0 - - 10 - - - -
29/02:30am 26.3 CALM 0 0 1008.1 - 0.0 - - 10 - - - -
29/02:00am 26.8 CALM 0 0 1008.6 - 0.0 - - 10 - - - -
29/01:30am 27.8 SW 4 5 1009.0 - 0.0 - - 10 - - - -
29/01:00am 28.2 WSW 5 5 1009.5 - 0.0 - - 10 - - - -
29/12:30am 28.3 SW 4 5 1009.8 - 0.0 - - 10 - - - -
29/12:00am 28.5 WSW 5 5 1009.8 F 0.0 Fine Mostly cloudy 30 - - - -
 
Date/Time
CST
Temp
°C
Wind Pressure Rain since
9am
mm
Weather Cloud Vis
km
Sea
Height
m
Swell
Dir  Spd
kts
Gust
kts
hPa Trend Height
m
Period
s
Dir
28/11:30pm 28.4 WNW 4 5 1010.1 - 0.0 - - 10 - - - -
28/11:00pm 28.7 W 4 6 1010.2 - 0.0 - - 10 - - - -
28/10:30pm 28.9 SW 5 6 1010.2 - 0.0 - - 10 - - - -
28/10:00pm 28.9 SW 6 8 1010.1 - 0.0 - - 10 - - - -
28/09:30pm 29.3 WSW 6 7 1009.8 - 0.0 - - 10 - - - -
28/09:00pm 29.6 WSW 6 8 1009.7 S 0.0 Fine Partly cloudy 30 - - - -
28/08:30pm 29.9 WSW 6 8 1009.4 - 0.0 - - 10 - - - -
28/08:00pm 30.0 WSW 7 9 1009.0 - 0.0 - - 10 - - - -
28/07:30pm 30.5 WSW 7 8 1008.6 - 0.0 - - 10 - - - -
28/07:00pm 31.1 WNW 6 8 1008.3 - 0.0 - - 10 - - - -
28/06:30pm 31.2 NNW 7 8 1008.0 - 0.0 - Mostly clear 10 - - - -
28/06:00pm 32.4 WNW 7 8 1007.9 S 0.0 Fine Partly cloudy 30 - - - -
28/05:30pm 33.1 NW 6 8 1007.5 - 0.0 - Mostly clear 10 - - - -
28/05:00pm 33.3 WNW 7 10 1007.5 - 0.0 - Mostly clear 10 - - - -
28/04:30pm 33.7 WNW 8 10 1007.5 - 0.0 - Mostly clear 10 - - - -
28/04:00pm 33.7 W 9 12 1007.5 - 0.0 - Mostly clear 10 - - - -
28/03:30pm 34.1 WNW 9 13 1007.8 - 0.0 - Mostly clear 10 - - - -
28/03:00pm 34.0 WNW 9 12 1008.1 F 0.0 Thunder Partly cloudy 30 - - - -
28/02:30pm 33.3 WNW 10 14 1008.7 - 0.0 - Mostly clear 10 - - - -
28/02:00pm 33.1 WNW 11 15 1009.2 - 0.0 - Mostly clear 10 - - - -
28/01:30pm 32.1 NW 10 14 1009.8 - 0.0 - Mostly clear 10 - - - -
28/01:00pm 32.0 WNW 12 16 1010.3 - 0.0 - Mostly clear 10 - - - -
28/12:30pm 32.3 WNW 11 16 1010.7 - 0.0 - Mostly clear 10 - - - -
28/12:00pm 32.2 WNW 12 16 1011.0 R 0.0 Fine Partly cloudy 30 - - - -
28/11:30am 31.6 NW 10 15 1011.3 - 0.0 - Mostly clear 10 - - - -
28/11:00am 30.8 NNW 9 12 1011.6 - 0.0 - Mostly clear 10 - - - -
28/10:30am 30.6 NW 10 15 1011.9 - 0.0 - Mostly clear 10 - - - -
28/10:00am 30.2 N 11 16 1012.1 - 0.0 - Partly cloudy 10 - - - -
28/09:30am 29.4 N 11 14 1012.1 - 0.0 - Partly cloudy 10 - - - -
28/09:00am 29.3 NNE 6 9 1011.9 R 0.0 Fine Partly cloudy 30 - - - -
28/08:30am 29.0 NE 7 8 1011.7 - 0.0 - Mostly clear 10 - - - -
28/08:00am 27.4 NE 6 8 1011.4 - 0.0 - Mostly clear 10 - - - -
28/07:30am 26.7 ENE 5 7 1011.1 - 0.0 - Mostly clear 10 - - - -
28/07:00am 25.8 CALM 0 4 1010.5 - 0.0 - Mostly clear 10 - - - -
28/06:30am 25.7 SSW 4 5 1009.9 - 0.0 - Mostly clear 10 - - - -
28/06:00am 25.9 SSW 4 5 1009.4 S 0.0 Fine Mostly clear 30 - - - -

Other Formats:

Comma delimited format used in spreadsheet applications
http://www.bom.gov.au/fwo/IDD60701/IDD60701.94120.axf

JavaScript Object Notation format (JSON) in row-major order
http://www.bom.gov.au/fwo/IDD60701/IDD60701.94120.json